createdAt,value
2023-04-09T00:00:55.497Z,7.95
2023-04-09T00:03:23.464Z,9.07
2023-04-09T00:05:52.270Z,9.05
2023-04-09T00:08:24.151Z,8.15
2023-04-09T00:10:52.291Z,8.73
2023-04-09T00:13:25.463Z,7.47
2023-04-09T00:16:04.126Z,8.32
2023-04-09T00:18:31.840Z,8.27
2023-04-09T00:20:59.489Z,8.20
2023-04-09T00:23:27.342Z,9.75
2023-04-09T00:25:55.021Z,7.97
2023-04-09T00:28:22.607Z,7.68
2023-04-09T00:30:50.433Z,7.38
2023-04-09T00:33:18.168Z,8.35
2023-04-09T00:35:45.964Z,8.18
2023-04-09T00:38:14.365Z,7.95
2023-04-09T00:40:42.212Z,7.78
2023-04-09T00:43:09.867Z,8.20
2023-04-09T00:45:37.614Z,8.02
2023-04-09T00:48:05.344Z,7.58
2023-04-09T00:50:32.935Z,7.93
2023-04-09T00:53:00.704Z,7.63
2023-04-09T00:55:28.512Z,7.78
2023-04-09T00:57:56.123Z,7.55
2023-04-09T01:00:24.104Z,17.90
2023-04-09T01:02:51.864Z,14.05
2023-04-09T01:05:19.668Z,10.93
2023-04-09T01:07:47.405Z,10.25
2023-04-09T01:10:15.016Z,8.23
2023-04-09T01:12:42.671Z,8.02
2023-04-09T01:15:10.370Z,8.55
2023-04-09T01:17:37.934Z,8.93
2023-04-09T01:20:05.512Z,8.45
2023-04-09T01:22:50.323Z,8.70
2023-04-09T01:25:18.437Z,8.25
2023-04-09T01:27:46.013Z,8.70
2023-04-09T01:30:13.956Z,8.43
2023-04-09T01:32:44.369Z,8.07
2023-04-09T01:35:12.110Z,8.13
2023-04-09T01:37:39.950Z,9.38
2023-04-09T01:40:07.559Z,9.25
2023-04-09T01:42:35.391Z,9.30
2023-04-09T01:45:03.115Z,8.43
2023-04-09T01:47:30.820Z,8.32
2023-04-09T01:49:58.429Z,8.50
2023-04-09T01:52:27.052Z,8.32
2023-04-09T01:54:54.663Z,8.85
2023-04-09T01:57:22.238Z,8.68
2023-04-09T01:59:49.904Z,8.10
2023-04-09T02:02:17.614Z,8.30
2023-04-09T02:04:45.476Z,8.40
2023-04-09T02:07:13.279Z,8.10
2023-04-09T02:09:40.894Z,8.35
2023-04-09T02:12:08.524Z,8.50
2023-04-09T02:14:36.340Z,8.30
2023-04-09T02:17:03.994Z,8.80
2023-04-09T02:19:31.782Z,9.25
2023-04-09T02:21:59.591Z,9.20
2023-04-09T02:24:27.158Z,8.95
2023-04-09T02:26:54.771Z,9.18
2023-04-09T02:29:22.707Z,9.90
2023-04-09T02:31:50.347Z,9.55
2023-04-09T02:34:17.948Z,9.38
2023-04-09T02:36:45.877Z,9.73
2023-04-09T02:39:13.468Z,9.52
2023-04-09T02:41:41.041Z,8.77
2023-04-09T02:44:09.090Z,8.70
2023-04-09T02:46:36.716Z,13.30
2023-04-09T02:49:05.256Z,11.45
2023-04-09T02:51:33.135Z,10.68
2023-04-09T02:54:00.756Z,10.55
2023-04-09T02:56:28.348Z,10.00
2023-04-09T02:58:56.412Z,10.25
2023-04-09T03:01:24.235Z,10.88
2023-04-09T03:03:52.690Z,10.55
2023-04-09T03:06:20.757Z,10.23
2023-04-09T03:08:48.464Z,10.85
2023-04-09T03:11:16.225Z,10.55
2023-04-09T03:13:44.081Z,10.85
2023-04-09T03:16:11.885Z,10.70
2023-04-09T03:18:39.497Z,11.07
2023-04-09T03:21:07.254Z,11.07
2023-04-09T03:23:34.975Z,10.55
2023-04-09T03:26:02.561Z,11.38
2023-04-09T03:28:30.987Z,11.05
2023-04-09T03:30:59.571Z,10.90
2023-04-09T03:33:27.139Z,10.30
2023-04-09T03:35:55.239Z,11.27
2023-04-09T03:38:23.076Z,10.43
2023-04-09T03:40:50.674Z,11.02
2023-04-09T03:43:18.576Z,10.80
2023-04-09T03:45:46.293Z,10.63
2023-04-09T03:48:14.911Z,10.50
2023-04-09T03:50:42.699Z,11.20
2023-04-09T03:53:11.104Z,11.77
2023-04-09T03:55:39.590Z,10.07
2023-04-09T03:58:07.569Z,10.75
2023-04-09T04:00:35.157Z,10.55
2023-04-09T04:03:03.091Z,9.85
2023-04-09T04:05:31.162Z,10.10
2023-04-09T04:07:58.740Z,10.50
2023-04-09T04:10:26.354Z,9.73
2023-04-09T04:12:54.116Z,10.52
2023-04-09T04:15:21.811Z,9.80
2023-04-09T04:17:49.524Z,9.80
2023-04-09T04:20:17.392Z,10.02
2023-04-09T04:22:45.064Z,10.90
2023-04-09T04:25:12.709Z,10.38
2023-04-09T04:27:40.537Z,10.02
2023-04-09T04:30:10.657Z,10.02
2023-04-09T04:32:38.362Z,10.05
2023-04-09T04:35:06.313Z,10.48
2023-04-09T04:37:33.940Z,10.20
2023-04-09T04:40:01.712Z,9.75
2023-04-09T04:42:30.274Z,9.68
2023-04-09T04:44:57.867Z,10.07
2023-04-09T04:47:25.583Z,10.35
2023-04-09T04:49:54.385Z,11.25
2023-04-09T04:52:22.064Z,10.68
2023-04-09T04:54:49.733Z,10.50
2023-04-09T04:57:18.484Z,10.40
2023-04-09T04:59:46.136Z,11.18
2023-04-09T05:02:13.881Z,10.95
2023-04-09T05:04:42.591Z,11.70
2023-04-09T05:07:10.228Z,12.73
2023-04-09T05:09:37.870Z,12.05
2023-04-09T05:12:06.558Z,11.13
2023-04-09T05:14:34.180Z,11.68
2023-04-09T05:17:01.789Z,11.10
2023-04-09T05:19:29.882Z,11.63
2023-04-09T05:21:57.473Z,10.93
2023-04-09T05:24:25.217Z,11.55
2023-04-09T05:26:53.346Z,10.85
2023-04-09T05:29:20.972Z,12.23
2023-04-09T05:31:48.585Z,11.50
2023-04-09T05:34:17.164Z,11.60
2023-04-09T05:36:44.761Z,11.52
2023-04-09T05:39:24.372Z,12.13
2023-04-09T05:41:52.490Z,13.05
2023-04-09T05:44:20.112Z,12.02
2023-04-09T05:46:47.729Z,11.98
2023-04-09T05:49:16.620Z,11.55
2023-04-09T05:51:44.279Z,12.35
2023-04-09T05:54:11.925Z,11.63
2023-04-09T05:56:40.481Z,11.10
2023-04-09T05:59:08.084Z,11.88
2023-04-09T06:01:35.978Z,11.75
2023-04-09T06:04:04.648Z,11.55
2023-04-09T06:06:32.612Z,12.05
2023-04-09T06:09:00.207Z,11.30
2023-04-09T06:11:28.373Z,11.98
2023-04-09T06:13:55.972Z,12.30
2023-04-09T06:16:23.947Z,11.68
2023-04-09T06:18:52.261Z,12.63
2023-04-09T06:21:20.040Z,11.80
2023-04-09T06:23:47.678Z,11.32
2023-04-09T06:26:16.278Z,11.20
2023-04-09T06:28:44.047Z,11.75
2023-04-09T06:31:12.033Z,12.10
2023-04-09T06:33:40.045Z,11.18
2023-04-09T06:36:09.434Z,12.00
2023-04-09T06:38:37.158Z,11.63
2023-04-09T06:41:05.813Z,11.70
2023-04-09T06:43:33.436Z,11.88
2023-04-09T06:46:01.120Z,11.85
2023-04-09T06:48:30.293Z,11.95
2023-04-09T06:50:57.930Z,11.15
2023-04-09T06:53:25.671Z,11.57
2023-04-09T06:55:56.549Z,11.32
2023-04-09T06:58:25.536Z,11.98
2023-04-09T07:00:53.267Z,12.00
2023-04-09T07:03:23.606Z,12.40
2023-04-09T07:05:51.286Z,12.00
2023-04-09T07:08:18.929Z,12.95
2023-04-09T07:10:46.958Z,12.00
2023-04-09T07:13:15.152Z,12.00
2023-04-09T07:15:43.242Z,11.55
2023-04-09T07:18:12.797Z,11.98
2023-04-09T07:20:40.367Z,13.00
2023-04-09T07:23:07.989Z,12.30
2023-04-09T07:25:36.755Z,11.73
2023-04-09T07:28:04.447Z,12.85
2023-04-09T07:30:32.273Z,12.25
2023-04-09T07:33:00.917Z,12.02
2023-04-09T07:35:28.650Z,12.10
2023-04-09T07:37:56.356Z,12.77
2023-04-09T07:40:24.530Z,12.35
2023-04-09T07:42:52.103Z,12.05
2023-04-09T07:45:19.755Z,12.77
2023-04-09T07:47:47.768Z,12.02
2023-04-09T07:50:15.387Z,11.88
2023-04-09T07:52:43.104Z,12.82
2023-04-09T07:55:12.117Z,12.65
2023-04-09T07:57:39.870Z,13.25
2023-04-09T08:00:07.858Z,12.63
2023-04-09T08:02:36.638Z,12.77
2023-04-09T08:05:04.389Z,12.85
2023-04-09T08:07:32.971Z,12.75
2023-04-09T08:10:01.560Z,12.77
2023-04-09T08:12:29.605Z,13.13
2023-04-09T08:14:57.337Z,13.13
2023-04-09T08:17:26.105Z,13.23
2023-04-09T08:19:53.849Z,13.52
2023-04-09T08:22:21.513Z,14.10
2023-04-09T08:24:49.640Z,13.23
2023-04-09T08:27:17.230Z,13.63
2023-04-09T08:29:44.906Z,13.73
2023-04-09T08:32:13.712Z,12.82
2023-04-09T08:34:41.366Z,12.93
2023-04-09T08:37:08.968Z,13.02
2023-04-09T08:39:37.089Z,12.50
2023-04-09T08:42:04.730Z,13.85
2023-04-09T08:44:32.384Z,13.07
2023-04-09T08:47:00.791Z,12.40
2023-04-09T08:49:28.406Z,11.63
2023-04-09T08:51:56.266Z,11.38
2023-04-09T08:54:25.371Z,11.93
2023-04-09T08:56:53.039Z,11.95
2023-04-09T08:59:20.707Z,12.80
2023-04-09T09:01:49.268Z,13.18
2023-04-09T09:04:16.900Z,13.20
2023-04-09T09:06:45.279Z,13.18
2023-04-09T09:09:13.315Z,12.15
2023-04-09T09:11:40.927Z,13.02
2023-04-09T09:14:12.045Z,12.38
2023-04-09T09:16:41.255Z,12.02
2023-04-09T09:19:08.856Z,12.05
2023-04-09T09:21:36.488Z,12.43
2023-04-09T09:24:05.310Z,13.32
2023-04-09T09:26:33.003Z,13.63
2023-04-09T09:29:00.618Z,12.90
2023-04-09T09:31:28.977Z,13.93
2023-04-09T09:33:56.669Z,12.82
2023-04-09T09:36:24.762Z,12.35
2023-04-09T09:38:53.179Z,12.45
2023-04-09T09:41:21.357Z,12.48
2023-04-09T09:43:48.990Z,14.18
2023-04-09T09:46:17.851Z,12.60
2023-04-09T09:48:45.513Z,12.48
2023-04-09T09:51:13.212Z,12.38
2023-04-09T09:53:41.232Z,13.10
2023-04-09T09:56:08.899Z,12.27
2023-04-09T09:58:36.489Z,13.40
2023-04-09T10:01:05.183Z,12.60
2023-04-09T10:03:33.007Z,12.85
2023-04-09T10:06:03.585Z,13.07
2023-04-09T10:08:32.282Z,12.95
2023-04-09T10:10:59.853Z,14.20
2023-04-09T10:13:27.477Z,14.75
2023-04-09T10:15:55.557Z,16.60
2023-04-09T10:18:23.240Z,15.05
2023-04-09T10:20:50.861Z,14.18
2023-04-09T10:23:18.935Z,13.70
2023-04-09T10:25:46.570Z,15.15
2023-04-09T10:28:14.198Z,15.35
2023-04-09T10:30:42.851Z,15.00
2023-04-09T10:33:10.663Z,14.82
2023-04-09T10:35:38.357Z,13.85
2023-04-09T10:38:06.398Z,13.50
2023-04-09T10:40:33.999Z,13.60
2023-04-09T10:43:01.651Z,13.13
2023-04-09T10:45:29.610Z,13.75
2023-04-09T10:47:57.458Z,13.98
2023-04-09T10:50:25.025Z,13.98
2023-04-09T10:52:53.066Z,13.77
2023-04-09T10:55:20.666Z,15.02
2023-04-09T10:57:48.386Z,14.65
2023-04-09T11:00:16.956Z,14.68
2023-04-09T11:02:44.890Z,14.90
2023-04-09T11:05:12.778Z,15.10
2023-04-09T11:07:40.719Z,14.82
2023-04-09T11:10:08.392Z,14.90
2023-04-09T11:12:35.992Z,15.23
2023-04-09T11:15:19.450Z,15.43
2023-04-09T11:17:47.823Z,14.93
2023-04-09T11:20:15.614Z,13.90
2023-04-09T11:22:44.426Z,14.50
2023-04-09T11:25:12.240Z,14.43
2023-04-09T11:27:39.987Z,14.70
2023-04-09T11:30:08.697Z,15.43
2023-04-09T11:32:36.418Z,15.75
2023-04-09T11:35:04.080Z,16.75
2023-04-09T11:37:32.290Z,17.10
2023-04-09T11:39:59.976Z,16.17
2023-04-09T11:42:27.656Z,16.90
2023-04-09T11:44:56.297Z,18.00
2023-04-09T11:47:23.922Z,18.75
2023-04-09T11:49:51.621Z,18.98
2023-04-09T11:52:20.296Z,18.70
2023-04-09T11:54:47.987Z,18.30
2023-04-09T11:57:15.581Z,18.15
2023-04-09T11:59:44.530Z,18.73
2023-04-09T12:02:12.238Z,17.88
2023-04-09T12:04:39.990Z,18.70
2023-04-09T12:07:08.167Z,18.83
2023-04-09T12:09:35.866Z,19.30
2023-04-09T12:12:03.460Z,18.73
2023-04-09T12:14:31.448Z,19.13
2023-04-09T12:16:59.084Z,20.67
2023-04-09T12:19:26.786Z,19.98
2023-04-09T12:21:54.891Z,20.20
2023-04-09T12:24:22.962Z,22.15
2023-04-09T12:26:50.669Z,21.95
2023-04-09T12:29:18.658Z,23.02
2023-04-09T12:31:46.333Z,22.17
2023-04-09T12:34:13.922Z,21.92
2023-04-09T12:36:42.597Z,21.75
2023-04-09T12:39:10.435Z,22.95
2023-04-09T12:41:38.039Z,25.02
2023-04-09T12:44:06.123Z,24.40
2023-04-09T12:46:33.852Z,23.83
2023-04-09T12:49:01.515Z,23.88
2023-04-09T12:51:29.520Z,26.45
2023-04-09T12:53:57.178Z,27.63
2023-04-09T12:56:24.764Z,28.35
2023-04-09T12:58:53.036Z,28.17
2023-04-09T13:01:20.855Z,26.38
2023-04-09T13:03:48.790Z,26.85
2023-04-09T13:06:16.855Z,25.13
2023-04-09T13:08:44.477Z,26.05
2023-04-09T13:11:12.111Z,25.52
2023-04-09T13:13:42.514Z,25.20
2023-04-09T13:16:10.341Z,25.08
2023-04-09T13:18:37.987Z,24.73
2023-04-09T13:21:06.443Z,25.17
2023-04-09T13:23:34.011Z,22.75
2023-04-09T13:26:01.645Z,23.58
2023-04-09T13:28:29.702Z,22.38
2023-04-09T13:30:57.598Z,21.80
2023-04-09T13:33:25.240Z,22.55
2023-04-09T13:35:53.768Z,22.55
2023-04-09T13:38:21.440Z,21.95
2023-04-09T13:40:49.264Z,22.77
2023-04-09T13:43:17.213Z,21.00
2023-04-09T13:45:44.784Z,22.65
2023-04-09T13:48:14.710Z,22.13
2023-04-09T13:50:43.486Z,23.45
2023-04-09T13:53:11.304Z,22.50
2023-04-09T13:55:38.947Z,24.45
2023-04-09T13:58:07.102Z,24.75
2023-04-09T14:00:34.857Z,25.40
2023-04-09T14:03:02.623Z,23.30
2023-04-09T14:05:31.562Z,22.75
2023-04-09T14:07:59.209Z,24.08
2023-04-09T14:10:26.806Z,23.05
2023-04-09T14:12:55.021Z,23.42
2023-04-09T14:15:22.658Z,22.23
2023-04-09T14:17:50.369Z,23.38
2023-04-09T14:20:19.904Z,22.30
2023-04-09T14:22:47.551Z,23.15
2023-04-09T14:25:15.151Z,22.52
2023-04-09T14:27:44.088Z,22.58
2023-04-09T14:30:11.677Z,22.67
2023-04-09T14:32:39.388Z,21.30
2023-04-09T14:35:09.267Z,22.50
2023-04-09T14:37:36.920Z,21.35
2023-04-09T14:40:04.484Z,21.63
2023-04-09T14:42:32.639Z,21.52
2023-04-09T14:45:00.255Z,22.20
2023-04-09T14:47:28.046Z,21.50
2023-04-09T14:49:56.103Z,20.60
2023-04-09T14:52:23.970Z,20.08
2023-04-09T14:54:51.653Z,20.48
2023-04-09T14:57:19.799Z,20.98
2023-04-09T14:59:47.410Z,19.77
2023-04-09T15:02:15.191Z,21.05
2023-04-09T15:04:43.527Z,19.85
2023-04-09T15:07:11.206Z,20.35
2023-04-09T15:09:38.964Z,19.42
2023-04-09T15:12:07.297Z,20.05
2023-04-09T15:14:34.890Z,21.15
2023-04-09T15:17:03.488Z,21.33
2023-04-09T15:19:31.522Z,20.67
2023-04-09T15:21:59.134Z,21.90
2023-04-09T15:24:26.900Z,21.25
2023-04-09T15:26:55.049Z,21.48
2023-04-09T15:29:22.953Z,20.75
2023-04-09T15:31:50.559Z,22.48
2023-04-09T15:34:19.784Z,23.40
2023-04-09T15:36:47.489Z,23.52
2023-04-09T15:39:15.050Z,24.23
2023-04-09T15:41:43.754Z,24.25
2023-04-09T15:44:11.328Z,24.90
2023-04-09T15:46:38.953Z,25.25
2023-04-09T15:49:06.892Z,25.58
2023-04-09T15:51:34.510Z,26.58
2023-04-09T15:54:02.048Z,26.25
2023-04-09T15:56:30.696Z,25.15
2023-04-09T15:58:58.240Z,23.75
2023-04-09T16:01:26.141Z,25.02
2023-04-09T16:03:54.144Z,27.15
2023-04-09T16:06:21.960Z,25.25
2023-04-09T16:08:49.604Z,24.35
2023-04-09T16:11:17.581Z,25.27
2023-04-09T16:13:45.152Z,26.63
2023-04-09T16:16:12.821Z,25.92
2023-04-09T16:18:40.790Z,24.60
2023-04-09T16:21:08.384Z,26.73
2023-04-09T16:23:36.029Z,26.33
2023-04-09T16:26:05.162Z,26.92
2023-04-09T16:28:32.796Z,25.08
2023-04-09T16:31:00.467Z,27.02
2023-04-09T16:33:28.293Z,26.88
2023-04-09T16:35:56.156Z,26.52
2023-04-09T16:38:23.965Z,26.23
2023-04-09T16:40:51.658Z,25.60
2023-04-09T16:43:19.278Z,25.25
2023-04-09T16:45:46.897Z,26.67
2023-04-09T16:48:14.880Z,25.88
2023-04-09T16:50:42.539Z,24.75
2023-04-09T16:53:10.245Z,24.08
2023-04-09T16:55:38.212Z,24.73
2023-04-09T16:58:05.804Z,23.38
2023-04-09T17:00:33.357Z,21.95
2023-04-09T17:03:01.159Z,20.65
2023-04-09T17:05:28.935Z,21.55
2023-04-09T17:07:56.504Z,21.52
2023-04-09T17:10:24.286Z,22.10
2023-04-09T17:12:51.931Z,23.20
2023-04-09T17:15:19.504Z,22.13
2023-04-09T17:17:47.242Z,21.60
2023-04-09T17:20:15.087Z,22.75
2023-04-09T17:22:42.716Z,21.25
2023-04-09T17:25:10.479Z,21.83
2023-04-09T17:27:38.062Z,21.70
2023-04-09T17:30:05.574Z,22.23
2023-04-09T17:32:33.870Z,21.25
2023-04-09T17:35:01.442Z,22.27
2023-04-09T17:37:29.039Z,22.55
2023-04-09T17:39:56.915Z,21.13
2023-04-09T17:42:24.493Z,21.95
2023-04-09T17:44:52.154Z,20.98
2023-04-09T17:47:20.171Z,22.52
2023-04-09T17:49:47.759Z,22.05
2023-04-09T17:52:15.205Z,21.90
2023-04-09T17:54:45.094Z,22.08
2023-04-09T17:57:13.329Z,21.77
2023-04-09T17:59:41.079Z,22.08
2023-04-09T18:02:09.240Z,21.52
2023-04-09T18:04:41.378Z,22.08
2023-04-09T18:07:12.306Z,22.45
2023-04-09T18:09:40.178Z,22.50
2023-04-09T18:12:08.696Z,21.33
2023-04-09T18:14:37.926Z,22.30
2023-04-09T18:17:05.856Z,22.75
2023-04-09T18:19:35.649Z,22.65
2023-04-09T18:22:03.790Z,23.52
2023-04-09T18:24:31.542Z,22.17
2023-04-09T18:26:59.222Z,22.48
2023-04-09T18:29:26.957Z,23.27
2023-04-09T18:31:54.528Z,22.73
2023-04-09T18:34:22.388Z,23.40
2023-04-09T18:36:51.179Z,23.40
2023-04-09T18:39:18.729Z,22.73
2023-04-09T18:41:46.278Z,24.38
2023-04-09T18:44:14.075Z,23.00
2023-04-09T18:46:41.658Z,23.08
2023-04-09T18:49:09.266Z,24.65
2023-04-09T18:51:37.031Z,24.88
2023-04-09T18:54:04.609Z,24.27
2023-04-09T18:56:32.245Z,24.10
2023-04-09T18:58:59.994Z,23.48
2023-04-09T19:01:27.621Z,24.25
2023-04-09T19:03:55.498Z,23.85
2023-04-09T19:06:25.160Z,23.33
2023-04-09T19:08:52.991Z,23.10
2023-04-09T19:11:20.976Z,24.27
2023-04-09T19:13:48.690Z,25.05
2023-04-09T19:16:16.310Z,24.55
2023-04-09T19:18:44.634Z,23.88
2023-04-09T19:21:12.331Z,22.73
2023-04-09T19:23:40.002Z,24.20
2023-04-09T19:26:07.596Z,22.83
2023-04-09T19:28:35.689Z,25.20
2023-04-09T19:31:04.048Z,25.35
2023-04-09T19:33:31.632Z,25.75
2023-04-09T19:36:00.048Z,25.90
2023-04-09T19:38:30.151Z,25.38
2023-04-09T19:40:57.872Z,24.15
2023-04-09T19:43:29.454Z,24.02
2023-04-09T19:45:57.180Z,23.92
2023-04-09T19:48:24.768Z,25.27
2023-04-09T19:50:52.928Z,26.52
2023-04-09T19:53:20.833Z,26.23
2023-04-09T19:55:49.287Z,24.98
2023-04-09T19:58:17.109Z,25.92
2023-04-09T20:00:44.836Z,25.88
2023-04-09T20:03:13.029Z,24.77
2023-04-09T20:05:41.176Z,25.85
2023-04-09T20:08:11.819Z,24.77
2023-04-09T20:10:42.064Z,25.52
2023-04-09T20:13:10.485Z,26.20
2023-04-09T20:15:38.080Z,26.02
2023-04-09T20:18:06.173Z,26.02
2023-04-09T20:20:34.461Z,27.00
2023-04-09T20:23:07.064Z,26.38
2023-04-09T20:25:40.273Z,25.67
2023-04-09T20:28:08.661Z,25.00
2023-04-09T20:30:45.558Z,25.35
2023-04-09T20:33:13.329Z,25.15
2023-04-09T20:35:40.938Z,26.02
2023-04-09T20:38:08.579Z,25.65
2023-04-09T20:40:36.623Z,25.98
2023-04-09T20:43:08.524Z,25.90
2023-04-09T20:45:36.348Z,24.40
2023-04-09T20:48:08.590Z,24.35
2023-04-09T20:50:36.369Z,25.75
2023-04-09T20:53:03.891Z,26.45
2023-04-09T20:55:31.805Z,25.48
2023-04-09T20:57:59.746Z,25.58
2023-04-09T21:00:27.382Z,26.80
2023-04-09T21:02:55.279Z,27.33
2023-04-09T21:05:24.151Z,26.50
2023-04-09T21:08:10.160Z,26.75
2023-04-09T21:10:57.948Z,26.23
2023-04-09T21:13:54.386Z,26.60
2023-04-09T21:16:42.697Z,25.85
2023-04-09T21:19:30.564Z,26.23
2023-04-09T21:22:18.326Z,28.30
2023-04-09T21:25:06.165Z,26.73
2023-04-09T21:27:53.938Z,27.63
2023-04-09T21:30:41.880Z,28.92
2023-04-09T21:33:30.151Z,26.77
2023-04-09T21:36:18.224Z,27.67
2023-04-09T21:39:06.015Z,28.08
2023-04-09T21:41:54.015Z,27.40
2023-04-09T21:44:41.789Z,28.40
2023-04-09T21:47:29.777Z,29.25
2023-04-09T21:50:17.659Z,29.80
2023-04-09T21:53:05.650Z,29.88
2023-04-09T21:55:53.455Z,29.88
2023-04-09T21:58:41.284Z,30.23
2023-04-09T22:01:29.601Z,28.15
2023-04-09T22:04:17.869Z,29.38
2023-04-09T22:07:05.690Z,29.40
2023-04-09T22:09:53.871Z,28.90
2023-04-09T22:12:41.646Z,30.15
2023-04-09T22:15:29.870Z,28.77
2023-04-09T22:18:17.658Z,31.08
2023-04-09T22:21:05.570Z,29.58
2023-04-09T22:23:53.311Z,30.60
2023-04-09T22:26:41.306Z,30.33
2023-04-09T22:29:29.074Z,29.05
2023-04-09T22:32:17.060Z,30.90
2023-04-09T22:35:04.818Z,29.85
2023-04-09T22:37:42.985Z,30.50
2023-04-09T22:40:16.824Z,29.55
2023-04-09T22:42:44.476Z,30.48
2023-04-09T22:45:12.326Z,29.75
2023-04-09T22:47:47.558Z,36.38
2023-04-09T22:50:24.603Z,43.58
2023-04-09T22:52:53.741Z,39.30
2023-04-09T22:55:29.072Z,34.30
2023-04-09T22:57:59.137Z,33.25
2023-04-09T23:00:28.022Z,36.22
2023-04-09T23:03:08.961Z,52.10
2023-04-09T23:05:48.432Z,62.45
2023-04-09T23:08:21.780Z,60.67
2023-04-09T23:10:50.415Z,57.33
2023-04-09T23:13:23.895Z,50.67
2023-04-09T23:15:52.968Z,45.33
2023-04-09T23:18:22.279Z,44.92
2023-04-09T23:20:50.223Z,45.60
2023-04-09T23:23:18.501Z,44.10
2023-04-09T23:25:52.542Z,45.00
2023-04-09T23:28:21.375Z,39.53
2023-04-09T23:30:57.563Z,36.90
2023-04-09T23:33:25.887Z,37.92
2023-04-09T23:35:54.865Z,37.50
2023-04-09T23:38:23.036Z,36.97
2023-04-09T23:40:50.861Z,38.45
2023-04-09T23:43:20.364Z,39.80
2023-04-09T23:45:48.608Z,41.15
2023-04-09T23:48:16.400Z,41.30
2023-04-09T23:50:47.313Z,40.85
2023-04-09T23:53:15.233Z,40.95
2023-04-09T23:55:44.534Z,40.20
2023-04-09T23:58:12.927Z,41.55
